Time;durP1;ratioP1;P1;durP2;ratioP2;P2;SDS_P1;SDS_P2;PMS_P1;PMS_P2;Temp;Humidity;BMP_temperature;BMP_pressure;BME280_temperature;BME280_humidity;BME280_pressure;Samples;Min_cycle;Max_cycle;Signal;HPM_P1;HPM_P2
2021/12/13 00:01:24;;;;;;;2.67;2.05;;;6.90;99.90;;;;;;5089356;28;20280;-68
2021/12/13 00:04:00;;;;;;;3.35;2.40;;;6.90;99.90;;;;;;5089026;28;20315;-67
2021/12/13 00:06:31;;;;;;;3.25;2.20;;;6.90;99.90;;;;;;5088796;28;20162;-66
2021/12/13 00:09:01;;;;;;;2.35;2.20;;;6.80;99.90;;;;;;5061051;28;20209;-68
2021/12/13 00:11:33;;;;;;;2.40;2.20;;;6.80;99.90;;;;;;5069013;28;20361;-68
2021/12/13 00:14:06;;;;;;;2.30;2.20;;;6.80;99.90;;;;;;5068953;28;20199;-69
2021/12/13 00:16:36;;;;;;;16.55;3.80;;;6.70;99.90;;;;;;5051259;28;20386;-68
2021/12/13 00:19:09;;;;;;;2.53;2.33;;;6.70;99.90;;;;;;5068840;28;20198;-70
2021/12/13 00:21:43;;;;;;;7.97;3.47;;;6.70;99.90;;;;;;5068934;28;20176;-68
2021/12/13 00:24:19;;;;;;;1.95;1.70;;;6.70;99.90;;;;;;5068740;28;20184;-70
2021/12/13 00:26:47;;;;;;;6.05;3.45;;;6.70;99.90;;;;;;5068562;28;20408;-68
2021/12/13 00:29:19;;;;;;;3.15;2.65;;;6.70;99.90;;;;;;5068882;28;20162;-68
2021/12/13 00:32:08;;;;;;;2.15;2.00;;;6.70;99.90;;;;;;5069235;28;20315;-66
2021/12/13 00:34:49;;;;;;;3.85;2.50;;;6.70;99.90;;;;;;5068509;28;20199;-67
2021/12/13 00:37:16;;;;;;;3.55;3.22;;;6.70;99.90;;;;;;5067874;28;20224;-67
2021/12/13 00:40:12;;;;;;;4.20;2.47;;;6.70;99.90;;;;;;5068799;28;20230;-68
2021/12/13 00:42:44;;;;;;;2.78;2.58;;;6.60;99.90;;;;;;5062284;28;20178;-69
2021/12/13 00:45:13;;;;;;;2.40;2.30;;;6.60;99.90;;;;;;5068316;28;20196;-69
2021/12/13 00:47:42;;;;;;;2.58;2.17;;;6.60;99.90;;;;;;5068097;28;20378;-69
2021/12/13 00:50:25;;;;;;;3.85;1.90;;;6.60;99.90;;;;;;5068555;28;20195;-67
2021/12/13 00:52:53;;;;;;;2.42;1.98;;;6.60;99.90;;;;;;5068180;28;20235;-68
2021/12/13 00:55:27;;;;;;;3.60;2.97;;;6.60;99.90;;;;;;5068221;28;20165;-67
2021/12/13 00:58:07;;;;;;;3.40;2.22;;;6.50;99.90;;;;;;5068027;28;20154;-69
2021/12/13 01:01:10;;;;;;;3.15;2.85;;;6.50;99.90;;;;;;5068033;28;20403;-69
2021/12/13 01:03:44;;;;;;;3.58;3.38;;;6.50;99.90;;;;;;5064025;28;20323;-68
2021/12/13 01:06:47;;;;;;;4.40;3.40;;;6.50;99.90;;;;;;5068058;28;20170;-69
2021/12/13 01:09:58;;;;;;;3.15;2.70;;;6.50;99.90;;;;;;5080668;28;20191;-70
2021/12/13 01:12:25;;;;;;;7.35;4.70;;;6.60;99.90;;;;;;5070360;28;20414;-68
2021/12/13 01:15:15;;;;;;;4.30;3.90;;;6.60;99.90;;;;;;5087719;28;20473;-68
2021/12/13 01:20:32;;;;;;;3.80;3.47;;;6.50;99.90;;;;;;5087786;28;20317;-69
2021/12/13 01:23:05;;;;;;;9.52;4.78;;;6.50;99.90;;;;;;5071024;28;20186;-68
2021/12/13 01:25:47;;;;;;;4.55;3.60;;;6.40;99.90;;;;;;5087691;28;20239;-69
2021/12/13 01:28:37;;;;;;;4.30;3.22;;;6.40;99.90;;;;;;5069919;28;20243;-68
2021/12/13 01:31:16;;;;;;;6.25;5.35;;;6.40;99.90;;;;;;5087654;28;20185;-68
2021/12/13 01:33:45;;;;;;;4.03;3.55;;;6.40;99.90;;;;;;5087468;28;20207;-69
2021/12/13 01:36:17;;;;;;;4.55;2.55;;;6.40;99.90;;;;;;5087533;28;20232;-68
2021/12/13 01:38:50;;;;;;;4.65;2.97;;;6.40;99.90;;;;;;5087641;28;20275;-69
2021/12/13 01:41:23;;;;;;;3.83;3.38;;;6.40;99.90;;;;;;5087384;28;20235;-67
2021/12/13 01:43:58;;;;;;;4.38;3.30;;;6.40;99.90;;;;;;5087305;28;20185;-66
2021/12/13 01:46:25;;;;;;;12.45;3.97;;;6.30;99.90;;;;;;5087242;28;20168;-68
2021/12/13 01:48:52;;;;;;;3.97;2.55;;;6.30;99.90;;;;;;5086602;28;20177;-68
2021/12/13 01:51:23;;;;;;;3.42;3.13;;;6.30;99.90;;;;;;5069867;28;20214;-68
2021/12/13 01:53:55;;;;;;;4.47;4.00;;;6.20;99.90;;;;;;5087178;28;20196;-69
2021/12/13 01:56:55;;;;;;;6.38;3.90;;;6.20;99.90;;;;;;5086800;28;20190;-68
2021/12/13 01:59:49;;;;;;;4.55;3.63;;;6.20;99.90;;;;;;5087312;28;20188;-67
2021/12/13 02:02:21;;;;;;;4.55;3.80;;;6.30;99.90;;;;;;5087116;28;20165;-69
2021/12/13 02:05:18;;;;;;;6.13;4.50;;;6.20;99.90;;;;;;5086999;28;20188;-68
2021/12/13 02:07:54;;;;;;;7.05;2.90;;;6.20;99.90;;;;;;5055581;28;20236;-68
2021/12/13 02:10:23;;;;;;;4.15;3.67;;;6.20;99.90;;;;;;5067075;28;20176;-68
2021/12/13 02:12:55;;;;;;;6.72;4.55;;;6.20;99.90;;;;;;5066771;28;20201;-68
2021/12/13 02:18:10;;;;;;;5.18;3.45;;;6.20;99.90;;;;;;5066682;28;20168;-68
2021/12/13 02:20:40;;;;;;;4.32;3.95;;;6.10;99.90;;;;;;5066908;28;20158;-67
2021/12/13 02:23:06;;;;;;;7.18;4.10;;;6.10;99.90;;;;;;5066795;28;20189;-68
2021/12/13 02:25:39;;;;;;;3.90;3.50;;;6.20;99.90;;;;;;5066744;28;20157;-69
2021/12/13 02:28:16;;;;;;;3.55;3.30;;;6.10;99.90;;;;;;5066490;28;20407;-66
2021/12/13 02:30:50;;;;;;;4.65;4.25;;;6.10;99.90;;;;;;5066809;28;20239;-69
2021/12/13 02:33:23;;;;;;;4.03;3.67;;;6.10;99.90;;;;;;5066655;28;20225;-69
2021/12/13 02:35:55;;;;;;;6.72;4.65;;;6.10;99.90;;;;;;5067198;28;20166;-70
2021/12/13 02:38:22;;;;;;;4.60;4.07;;;6.10;99.90;;;;;;5066500;28;20247;-68
2021/12/13 02:40:49;;;;;;;5.97;4.20;;;6.10;99.90;;;;;;5066668;28;20195;-69
2021/12/13 02:43:17;;;;;;;5.60;4.95;;;6.00;99.90;;;;;;5066554;28;20189;-67
2021/12/13 02:45:50;;;;;;;4.13;3.45;;;6.00;99.90;;;;;;5066710;28;20177;-69
2021/12/13 02:48:33;;;;;;;9.43;3.95;;;6.00;99.90;;;;;;5066320;28;20167;-68
2021/12/13 02:51:17;;;;;;;5.45;4.55;;;6.00;99.90;;;;;;5066657;28;20228;-68
2021/12/13 02:53:52;;;;;;;5.15;4.10;;;6.00;99.90;;;;;;5066487;28;20189;-67
2021/12/13 02:56:24;;;;;;;4.60;3.05;;;6.00;99.90;;;;;;5066340;28;20192;-67
2021/12/13 02:58:52;;;;;;;5.00;4.47;;;6.00;99.90;;;;;;5066616;28;20160;-69
2021/12/13 03:01:30;;;;;;;5.18;3.55;;;6.00;99.90;;;;;;5069127;28;20238;-67
2021/12/13 03:04:00;;;;;;;3.63;3.05;;;6.00;99.90;;;;;;5070222;28;20212;-68
2021/12/13 03:06:31;;;;;;;8.27;4.55;;;6.00;99.90;;;;;;5070170;28;20155;-66
2021/12/13 03:09:01;;;;;;;5.95;4.15;;;6.10;99.90;;;;;;5080687;28;20176;-68
2021/12/13 03:11:32;;;;;;;4.90;4.50;;;6.10;99.90;;;;;;5090008;28;20159;-66
2021/12/13 03:14:18;;;;;;;9.07;4.00;;;6.00;99.90;;;;;;5090188;28;20261;-67
2021/12/13 03:16:58;;;;;;;6.30;5.13;;;6.00;99.90;;;;;;5089819;28;20219;-68
2021/12/13 03:19:42;;;;;;;5.60;3.95;;;6.10;99.90;;;;;;5090150;28;20161;-68
2021/12/13 03:22:26;;;;;;;5.93;3.53;;;6.00;99.90;;;;;;5090011;28;20168;-68
2021/12/13 03:25:22;;;;;;;4.57;4.07;;;6.00;99.90;;;;;;5089807;28;20259;-67
2021/12/13 03:28:20;;;;;;;4.32;3.45;;;6.00;99.90;;;;;;5089680;28;20174;-68
2021/12/13 03:31:05;;;;;;;4.28;3.30;;;6.10;99.90;;;;;;5089904;28;20153;-68
2021/12/13 03:33:48;;;;;;;10.10;4.88;;;6.10;99.90;;;;;;5089614;28;20292;-68
2021/12/13 03:36:19;;;;;;;4.72;3.08;;;6.10;99.90;;;;;;5089754;28;20379;-66
2021/12/13 03:38:50;;;;;;;5.55;5.10;;;6.20;99.90;;;;;;5089611;28;20365;-68
2021/12/13 03:41:21;;;;;;;5.93;4.80;;;6.20;99.90;;;;;;5089738;28;20161;-66
2021/12/13 03:44:05;;;;;;;6.10;5.40;;;6.10;99.90;;;;;;5089601;28;20194;-67
2021/12/13 03:46:33;;;;;;;5.68;4.00;;;6.10;99.90;;;;;;5089305;28;20209;-66
2021/12/13 03:49:01;;;;;;;5.13;4.00;;;6.10;99.90;;;;;;5089497;28;20359;-68
2021/12/13 03:51:32;;;;;;;5.53;4.68;;;6.20;99.90;;;;;;5089602;28;20180;-67
2021/12/13 03:54:00;;;;;;;8.10;4.15;;;6.20;99.90;;;;;;5071877;28;20187;-67
2021/12/13 03:56:30;;;;;;;6.30;4.78;;;6.20;99.90;;;;;;5089140;28;20225;-67
2021/12/13 03:59:04;;;;;;;4.00;3.65;;;6.30;99.90;;;;;;5089430;28;20165;-66
2021/12/13 04:01:48;;;;;;;6.93;4.20;;;6.30;99.90;;;;;;5089273;28;20184;-66
2021/12/13 04:04:24;;;;;;;4.80;3.30;;;6.30;99.90;;;;;;5089119;28;20230;-68
2021/12/13 04:06:58;;;;;;;5.90;4.63;;;6.30;99.90;;;;;;5089064;28;20223;-68
2021/12/13 04:09:26;;;;;;;5.60;3.95;;;6.20;99.90;;;;;;5074787;28;20186;-67
2021/12/13 04:11:55;;;;;;;7.50;4.45;;;6.20;99.90;;;;;;5068808;28;20207;-67
2021/12/13 04:14:28;;;;;;;6.35;4.25;;;6.20;99.90;;;;;;5070822;28;20295;-67
2021/12/13 04:17:19;;;;;;;4.40;3.80;;;6.20;99.90;;;;;;5069190;28;20161;-67
2021/12/13 04:19:56;;;;;;;6.07;5.00;;;6.20;99.90;;;;;;5069075;28;20190;-67
2021/12/13 04:22:32;;;;;;;7.20;4.22;;;6.20;99.90;;;;;;5068847;28;20270;-67
2021/12/13 04:25:03;;;;;;;6.78;4.65;;;6.20;99.90;;;;;;5068771;28;20193;-67
2021/12/13 04:27:39;;;;;;;7.90;5.22;;;6.20;99.90;;;;;;5051064;28;20323;-68
2021/12/13 04:30:25;;;;;;;7.97;5.55;;;6.20;99.90;;;;;;5069028;28;20334;-68
2021/12/13 04:32:57;;;;;;;8.10;5.50;;;6.20;99.90;;;;;;5050923;28;20200;-67
2021/12/13 04:35:24;;;;;;;9.55;5.60;;;6.20;99.90;;;;;;5068910;28;20175;-68
2021/12/13 04:37:54;;;;;;;3.85;3.55;;;6.20;99.90;;;;;;5068252;28;20326;-68
2021/12/13 04:40:24;;;;;;;6.07;4.57;;;6.20;99.90;;;;;;5068575;28;20213;-66
2021/12/13 04:42:55;;;;;;;7.40;5.43;;;6.20;99.90;;;;;;5068339;28;20187;-67
2021/12/13 04:45:23;;;;;;;7.93;5.80;;;6.20;99.90;;;;;;5050990;28;20302;-67
2021/12/13 04:47:57;;;;;;;9.00;6.75;;;6.20;99.90;;;;;;5068103;28;20393;-68
2021/12/13 04:50:47;;;;;;;10.07;5.20;;;6.20;99.90;;;;;;5068379;28;20161;-68
2021/12/13 04:53:25;;;;;;;10.85;6.15;;;6.20;99.90;;;;;;5068211;28;20222;-68
2021/12/13 04:55:53;;;;;;;7.95;4.97;;;6.20;99.90;;;;;;5068326;28;20382;-68
2021/12/13 04:58:20;;;;;;;5.40;4.20;;;6.20;99.90;;;;;;5067922;28;20172;-68
2021/12/13 05:00:51;;;;;;;7.22;6.03;;;6.20;99.90;;;;;;5068457;28;20168;-69
2021/12/13 05:03:22;;;;;;;5.70;5.15;;;6.30;99.90;;;;;;5067912;28;20205;-66
2021/12/13 05:05:47;;;;;;;11.23;5.72;;;6.20;99.90;;;;;;5050462;28;20374;-67
2021/12/13 05:08:16;;;;;;;9.37;5.43;;;6.20;99.90;;;;;;5072122;28;20199;-68
2021/12/13 05:10:46;;;;;;;8.05;5.00;;;6.20;99.90;;;;;;5087928;28;20238;-68
2021/12/13 05:13:29;;;;;;;8.35;5.18;;;6.30;99.90;;;;;;5087774;28;20247;-68
2021/12/13 05:16:12;;;;;;;7.30;4.60;;;6.20;99.90;;;;;;5087814;28;20187;-68
2021/12/13 05:18:43;;;;;;;8.13;4.40;;;6.20;99.90;;;;;;5087564;28;20161;-67
2021/12/13 05:21:14;;;;;;;8.38;3.75;;;6.20;99.90;;;;;;5087723;28;20166;-68
2021/12/13 05:23:51;;;;;;;6.47;4.38;;;6.20;99.90;;;;;;5086815;28;20197;-68
2021/12/13 05:26:37;;;;;;;6.78;5.00;;;6.20;99.90;;;;;;5083892;28;20401;-68
2021/12/13 05:29:06;;;;;;;5.88;3.85;;;6.20;99.90;;;;;;5087439;28;20227;-68
2021/12/13 05:31:32;;;;;;;8.45;5.15;;;6.20;99.90;;;;;;5087424;28;20162;-68
2021/12/13 05:34:02;;;;;;;11.90;4.63;;;6.20;99.90;;;;;;5087539;28;20194;-69
2021/12/13 05:36:32;;;;;;;6.40;5.38;;;6.20;99.90;;;;;;5087220;28;20254;-68
2021/12/13 05:39:09;;;;;;;6.20;4.25;;;6.30;99.90;;;;;;5087449;28;20188;-68
2021/12/13 05:41:36;;;;;;;6.25;5.40;;;6.20;99.90;;;;;;5087317;28;21057;-68
2021/12/13 05:44:08;;;;;;;5.63;4.53;;;6.30;99.90;;;;;;5087364;28;20413;-68
2021/12/13 05:46:44;;;;;;;9.23;5.07;;;6.30;99.90;;;;;;5086161;28;20164;-68
2021/12/13 05:49:17;;;;;;;6.85;4.50;;;6.30;99.90;;;;;;5085680;28;20162;-68
2021/12/13 05:51:46;;;;;;;8.35;4.95;;;6.30;99.90;;;;;;5085671;28;20320;-69
2021/12/13 05:54:20;;;;;;;8.75;4.93;;;6.30;99.90;;;;;;5085601;28;20204;-69
2021/12/13 05:56:53;;;;;;;5.95;5.32;;;6.30;99.90;;;;;;5085442;28;20185;-69
2021/12/13 05:59:23;;;;;;;6.35;3.55;;;6.30;99.90;;;;;;5085664;28;20161;-69
2021/12/13 06:02:45;;;;;;;8.68;4.88;;;6.30;99.90;;;;;;5086210;28;20383;-68
2021/12/13 06:05:22;;;;;;;7.22;5.10;;;6.30;99.90;;;;;;5048984;28;20291;-69
2021/12/13 06:07:58;;;;;;;13.23;4.97;;;6.30;99.90;;;;;;5085796;28;20180;-68
2021/12/13 06:10:38;;;;;;;11.77;5.07;;;6.20;99.90;;;;;;5066942;28;20176;-69
2021/12/13 06:13:08;;;;;;;7.35;4.75;;;6.30;99.90;;;;;;5066991;28;20236;-69
2021/12/13 06:15:38;;;;;;;5.75;4.07;;;6.30;99.90;;;;;;5066839;28;20406;-68
2021/12/13 06:18:04;;;;;;;7.90;4.00;;;6.30;99.90;;;;;;5066599;28;20211;-68
2021/12/13 06:20:33;;;;;;;7.10;4.67;;;6.30;99.90;;;;;;5066818;28;20162;-69
2021/12/13 06:23:08;;;;;;;13.20;5.10;;;6.40;99.90;;;;;;5066620;28;20200;-67
2021/12/13 06:25:35;;;;;;;6.20;4.45;;;6.40;99.90;;;;;;5049300;28;20176;-68
2021/12/13 06:28:00;;;;;;;9.00;6.35;;;6.40;99.90;;;;;;5066454;28;20181;-69
2021/12/13 06:30:30;;;;;;;8.10;4.97;;;6.40;99.90;;;;;;5049740;28;20185;-69
2021/12/13 06:32:57;;;;;;;4.20;3.83;;;6.40;99.90;;;;;;5066501;28;20560;-66
2021/12/13 06:35:49;;;;;;;4.97;4.45;;;6.40;99.90;;;;;;5067800;28;20161;-69
2021/12/13 06:38:30;;;;;;;7.25;4.32;;;6.30;99.90;;;;;;5070798;28;20209;-68
2021/12/13 06:41:01;;;;;;;4.53;4.10;;;6.30;99.90;;;;;;5070773;28;20165;-69
2021/12/13 06:43:34;;;;;;;7.60;4.75;;;6.30;99.90;;;;;;5073129;28;20244;-69
2021/12/13 06:46:05;;;;;;;10.43;4.70;;;6.30;99.90;;;;;;5053422;28;20171;-69
2021/12/13 06:48:43;;;;;;;8.90;4.25;;;6.30;99.90;;;;;;5070358;28;20227;-71
2021/12/13 06:51:12;;;;;;;6.03;5.25;;;6.30;99.90;;;;;;5070710;28;20179;-68
2021/12/13 06:53:39;;;;;;;6.78;4.90;;;6.40;99.90;;;;;;5070426;28;20238;-68
2021/12/13 06:56:24;;;;;;;3.35;3.13;;;6.40;99.90;;;;;;5070780;28;20188;-68
2021/12/13 06:58:53;;;;;;;6.25;4.78;;;6.40;99.90;;;;;;5070729;28;20176;-68
2021/12/13 07:01:19;;;;;;;5.75;4.78;;;6.40;99.90;;;;;;5070728;28;20224;-67
2021/12/13 07:04:12;;;;;;;5.45;4.35;;;6.50;99.90;;;;;;5070853;28;20217;-68
2021/12/13 07:06:39;;;;;;;6.78;5.25;;;6.50;99.90;;;;;;5067824;28;20174;-69
2021/12/13 07:09:05;;;;;;;9.05;5.53;;;6.50;99.90;;;;;;5070527;28;20165;-68
2021/12/13 07:11:54;;;;;;;9.30;4.93;;;6.60;99.90;;;;;;5070654;28;20257;-70
2021/12/13 07:14:36;;;;;;;6.13;5.53;;;6.60;99.90;;;;;;5070456;28;20193;-68
2021/12/13 07:17:15;;;;;;;12.48;5.90;;;6.60;99.90;;;;;;5070276;28;20276;-68
2021/12/13 07:19:44;;;;;;;13.75;5.40;;;6.60;99.90;;;;;;5070322;28;20179;-67
2021/12/13 07:22:15;;;;;;;7.45;4.82;;;6.60;99.90;;;;;;5052413;28;20167;-67
2021/12/13 07:24:45;;;;;;;7.38;4.85;;;6.60;99.90;;;;;;5069680;28;20369;-67
2021/12/13 07:27:18;;;;;;;8.32;5.15;;;6.60;99.90;;;;;;5069479;28;20171;-69
2021/12/13 07:29:55;;;;;;;11.57;4.88;;;6.60;99.90;;;;;;5052197;28;20174;-67
2021/12/13 07:32:31;;;;;;;7.80;4.57;;;6.50;99.90;;;;;;5069674;28;20216;-68
2021/12/13 07:35:18;;;;;;;9.48;4.22;;;6.60;99.90;;;;;;5055888;28;20191;-68
2021/12/13 07:37:52;;;;;;;5.07;4.53;;;6.50;99.90;;;;;;5079378;28;20172;-67
2021/12/13 07:40:34;;;;;;;10.05;5.30;;;6.60;99.90;;;;;;5107492;27;20159;-68
2021/12/13 07:43:18;;;;;;;5.70;4.70;;;6.60;99.90;;;;;;5089195;28;20380;-72
2021/12/13 07:46:06;;;;;;;5.97;4.80;;;6.60;99.90;;;;;;5092951;27;20225;-70
2021/12/13 07:48:41;;;;;;;8.10;4.25;;;6.60;99.90;;;;;;5073358;28;20183;-72
2021/12/13 07:51:16;;;;;;;6.18;3.78;;;6.70;99.90;;;;;;5089377;28;20212;-70
2021/12/13 07:53:44;;;;;;;7.30;4.32;;;6.70;99.90;;;;;;5085838;28;20211;-70
2021/12/13 07:56:13;;;;;;;5.10;3.97;;;6.70;99.90;;;;;;5088361;28;20169;-71
2021/12/13 07:58:47;;;;;;;9.55;6.53;;;6.80;99.90;;;;;;5083470;28;20215;-72
2021/12/13 08:01:16;;;;;;;9.50;4.93;;;6.80;99.90;;;;;;5068641;28;20152;-73
2021/12/13 08:04:12;;;;;;;7.13;5.45;;;6.80;99.90;;;;;;5079616;28;20332;-69
2021/12/13 08:06:46;;;;;;;7.90;5.07;;;6.90;99.90;;;;;;5083779;28;20194;-69
2021/12/13 08:09:15;;;;;;;7.68;4.80;;;6.90;99.90;;;;;;5083551;28;20168;-69
2021/12/13 08:11:44;;;;;;;7.57;5.78;;;6.90;99.90;;;;;;5059437;28;20200;-69
2021/12/13 08:14:11;;;;;;;8.55;5.68;;;7.00;99.90;;;;;;5076237;28;20378;-68
2021/12/13 08:16:47;;;;;;;5.50;4.85;;;7.10;99.90;;;;;;5081665;28;20168;-68
2021/12/13 08:19:15;;;;;;;6.45;4.55;;;7.00;99.90;;;;;;5087987;28;20167;-69
2021/12/13 08:21:58;;;;;;;7.15;5.68;;;7.00;99.90;;;;;;5086771;28;20184;-70
2021/12/13 08:24:38;;;;;;;7.07;4.28;;;7.10;99.90;;;;;;5090636;28;20529;-71
2021/12/13 08:27:12;;;;;;;5.75;5.15;;;7.10;99.90;;;;;;5089541;28;20172;-70
2021/12/13 08:29:40;;;;;;;5.72;4.80;;;7.10;99.90;;;;;;5088497;28;20174;-69
2021/12/13 08:32:16;;;;;;;6.78;4.43;;;7.20;99.90;;;;;;5087890;28;20234;-70
2021/12/13 08:34:48;;;;;;;7.53;5.07;;;7.20;99.90;;;;;;5088016;28;20186;-70
2021/12/13 08:37:28;;;;;;;10.20;5.00;;;7.20;99.90;;;;;;5086654;28;20191;-71
2021/12/13 08:40:09;;;;;;;12.80;5.68;;;7.20;99.90;;;;;;5087667;28;20291;-69
2021/12/13 08:42:41;;;;;;;6.15;5.57;;;7.30;99.90;;;;;;5085853;28;20227;-70
2021/12/13 08:45:24;;;;;;;7.18;5.95;;;7.40;99.90;;;;;;5087438;28;20165;-70
2021/12/13 08:47:53;;;;;;;6.90;4.90;;;7.50;99.90;;;;;;5088951;27;20256;-69
2021/12/13 08:50:34;;;;;;;6.90;5.22;;;7.60;99.90;;;;;;5087597;28;20189;-70
2021/12/13 08:53:12;;;;;;;6.90;4.60;;;7.50;99.90;;;;;;5080534;28;20309;-74
2021/12/13 08:55:43;;;;;;;9.18;5.78;;;7.60;99.90;;;;;;5068009;28;20214;-70
2021/12/13 08:58:18;;;;;;;5.55;4.50;;;7.60;99.90;;;;;;5072332;28;20193;-69
2021/12/13 09:00:53;;;;;;;8.45;4.45;;;7.70;99.90;;;;;;5067993;28;20153;-69
2021/12/13 09:03:27;;;;;;;8.25;5.15;;;7.80;99.90;;;;;;5080434;28;20211;-68
2021/12/13 09:06:16;;;;;;;5.75;4.47;;;7.90;99.90;;;;;;5087871;28;20222;-69
2021/12/13 09:08:52;;;;;;;6.78;4.60;;;8.00;99.90;;;;;;5087361;28;20189;-71
2021/12/13 09:11:37;;;;;;;5.03;4.57;;;8.00;99.90;;;;;;5086627;28;20191;-69
2021/12/13 09:14:17;;;;;;;11.70;6.60;;;8.00;99.90;;;;;;5075586;28;20318;-70
2021/12/13 09:17:10;;;;;;;5.78;4.55;;;8.00;99.90;;;;;;5053118;28;20248;-70
2021/12/13 09:19:49;;;;;;;6.32;4.60;;;8.20;99.90;;;;;;5067546;28;20261;-70
2021/12/13 09:22:31;;;;;;;7.70;6.53;;;8.30;99.90;;;;;;5071647;28;20240;-70
2021/12/13 09:25:06;;;;;;;6.20;5.65;;;8.30;99.90;;;;;;5085494;28;20196;-70
2021/12/13 09:27:41;;;;;;;9.70;4.88;;;8.30;99.90;;;;;;5086859;28;20280;-70
2021/12/13 09:30:42;;;;;;;9.82;6.22;;;8.30;99.90;;;;;;5086616;28;20165;-70
2021/12/13 09:33:22;;;;;;;5.50;4.50;;;8.30;99.90;;;;;;5069975;28;20270;-69
2021/12/13 09:35:54;;;;;;;7.65;5.28;;;8.30;99.90;;;;;;5070388;28;20176;-68
2021/12/13 09:38:25;;;;;;;6.93;6.00;;;8.30;99.90;;;;;;5086780;28;20167;-69
2021/12/13 09:40:58;;;;;;;6.57;5.28;;;8.40;99.90;;;;;;5087005;28;20215;-69
2021/12/13 09:43:53;;;;;;;9.05;5.82;;;8.40;99.90;;;;;;5081308;28;20236;-71
2021/12/13 09:46:32;;;;;;;8.35;4.68;;;8.50;99.90;;;;;;5086391;28;20195;-67
2021/12/13 09:49:00;;;;;;;5.45;4.05;;;8.60;99.90;;;;;;5086054;28;20181;-69
2021/12/13 09:51:36;;;;;;;7.55;5.20;;;8.70;99.90;;;;;;5084522;28;20173;-68
2021/12/13 09:54:05;;;;;;;4.03;3.58;;;8.80;99.90;;;;;;5086788;28;20196;-69
2021/12/13 09:56:37;;;;;;;5.35;4.78;;;8.90;99.90;;;;;;5086021;28;20293;-70
2021/12/13 09:59:38;;;;;;;8.38;5.25;;;9.00;99.90;;;;;;5084513;28;20298;-70
2021/12/13 10:02:10;;;;;;;5.07;4.05;;;9.00;99.90;;;;;;5035868;28;20189;-70
2021/12/13 10:04:40;;;;;;;5.47;4.88;;;9.00;99.90;;;;;;5083198;28;20200;-68
2021/12/13 10:07:19;;;;;;;6.05;3.92;;;8.90;99.90;;;;;;5081070;28;20244;-70
2021/12/13 10:09:56;;;;;;;5.35;4.85;;;9.00;99.90;;;;;;5070202;28;20206;-69
2021/12/13 10:12:39;;;;;;;5.15;4.65;;;9.10;99.90;;;;;;5086586;28;20222;-69
2021/12/13 10:15:08;;;;;;;7.50;4.65;;;9.10;99.90;;;;;;5081953;28;20181;-69
2021/12/13 10:17:39;;;;;;;3.75;3.33;;;9.10;99.90;;;;;;5085318;28;20288;-68
2021/12/13 10:20:15;;;;;;;6.97;4.13;;;9.10;99.90;;;;;;5085735;28;20192;-68
2021/12/13 10:22:42;;;;;;;4.90;4.20;;;9.20;99.90;;;;;;5086188;28;20184;-69
2021/12/13 10:25:19;;;;;;;4.45;3.42;;;9.20;99.90;;;;;;5086695;28;20233;-69
2021/12/13 10:27:54;;;;;;;5.30;4.80;;;9.30;99.90;;;;;;5085466;28;20164;-71
2021/12/13 10:30:27;;;;;;;7.15;4.13;;;9.20;99.90;;;;;;5085653;28;20160;-69
2021/12/13 10:32:53;;;;;;;7.55;6.03;;;9.20;99.90;;;;;;5086086;28;20196;-69
2021/12/13 10:35:26;;;;;;;5.13;4.15;;;9.20;99.90;;;;;;5086418;28;20257;-69
2021/12/13 10:38:00;;;;;;;6.43;4.28;;;9.10;99.90;;;;;;5085807;28;20231;-68
2021/12/13 10:40:51;;;;;;;5.80;4.35;;;9.20;99.90;;;;;;5076154;28;20177;-69
2021/12/13 10:43:43;;;;;;;4.70;3.80;;;9.30;99.90;;;;;;5069770;28;20196;-69
2021/12/13 10:46:15;;;;;;;8.77;4.93;;;9.30;99.90;;;;;;5086150;28;20298;-71
2021/12/13 10:48:47;;;;;;;4.03;3.35;;;9.40;99.90;;;;;;5084568;28;20169;-70
2021/12/13 10:51:21;;;;;;;8.23;5.05;;;9.30;99.90;;;;;;5073303;28;20392;-68
2021/12/13 10:53:48;;;;;;;4.00;3.05;;;9.30;99.90;;;;;;5075857;28;20199;-70
2021/12/13 10:56:22;;;;;;;5.10;4.47;;;9.30;99.90;;;;;;5093944;27;20298;-70
2021/12/13 10:58:51;;;;;;;5.13;3.10;;;9.40;99.90;;;;;;5072107;28;20244;-70
2021/12/13 11:01:41;;;;;;;4.35;3.33;;;9.50;99.90;;;;;;5065922;28;20181;-70
2021/12/13 11:04:11;;;;;;;5.70;3.88;;;9.60;99.90;;;;;;5068116;28;20254;-70
2021/12/13 11:06:40;;;;;;;4.72;4.25;;;9.70;99.90;;;;;;5077137;28;20165;-69
2021/12/13 11:09:11;;;;;;;6.55;3.63;;;9.70;99.90;;;;;;5076122;28;20162;-69
2021/12/13 11:11:45;;;;;;;6.20;4.75;;;9.80;99.90;;;;;;5056183;28;20169;-69
2021/12/13 11:14:17;;;;;;;3.88;3.15;;;9.80;99.90;;;;;;5081935;28;20193;-69
2021/12/13 11:16:47;;;;;;;6.05;4.63;;;9.70;99.90;;;;;;5079776;28;20277;-70
2021/12/13 11:19:15;;;;;;;4.28;3.45;;;9.70;99.90;;;;;;5084378;28;20222;-70
2021/12/13 11:21:44;;;;;;;4.07;3.75;;;9.70;99.90;;;;;;5087093;28;20161;-70
2021/12/13 11:24:19;;;;;;;11.35;4.85;;;9.70;99.90;;;;;;5084291;28;20356;-70
2021/12/13 11:26:47;;;;;;;4.38;3.97;;;9.70;99.90;;;;;;5083051;28;20161;-68
2021/12/13 11:29:15;;;;;;;6.50;3.58;;;9.60;99.90;;;;;;5098494;27;20157;-71
2021/12/13 11:31:53;;;;;;;3.80;3.40;;;9.60;99.90;;;;;;5088693;28;20179;-70
2021/12/13 11:34:33;;;;;;;11.27;4.13;;;9.60;99.90;;;;;;5089021;28;20207;-68
2021/12/13 11:37:36;;;;;;;3.50;3.20;;;9.70;99.90;;;;;;5088680;28;20327;-69
2021/12/13 11:40:28;;;;;;;9.13;7.38;;;9.90;99.90;;;;;;5089118;28;20230;-70
2021/12/13 11:43:30;;;;;;;4.80;4.32;;;10.00;99.90;;;;;;5089355;28;20157;-69
2021/12/13 11:46:33;;;;;;;8.48;3.55;;;10.00;99.90;;;;;;5089042;28;20169;-70
2021/12/13 11:49:02;;;;;;;6.25;4.65;;;10.00;99.90;;;;;;5089286;28;20180;-71
2021/12/13 11:52:02;;;;;;;5.05;3.85;;;10.00;99.90;;;;;;5089498;28;20153;-70
2021/12/13 11:55:09;;;;;;;4.97;4.00;;;9.90;99.90;;;;;;5089232;28;20193;-69
2021/12/13 11:58:13;;;;;;;4.88;4.40;;;9.90;99.90;;;;;;5074539;28;20176;-69
2021/12/13 12:01:19;;;;;;;4.88;4.05;;;9.80;99.90;;;;;;5088622;28;20376;-70
2021/12/13 12:04:03;;;;;;;3.67;3.38;;;9.80;99.90;;;;;;5087095;28;20204;-70
2021/12/13 12:06:53;;;;;;;3.92;3.63;;;9.80;99.90;;;;;;5088889;28;20579;-71
2021/12/13 12:09:49;;;;;;;4.18;3.47;;;9.80;99.90;;;;;;5088958;28;20180;-69
2021/12/13 12:12:46;;;;;;;7.63;4.78;;;9.80;99.90;;;;;;5088848;28;20188;-68
2021/12/13 12:15:13;;;;;;;3.88;2.92;;;9.80;99.90;;;;;;5088573;28;20269;-68
2021/12/13 12:17:39;;;;;;;7.97;4.68;;;9.70;99.90;;;;;;5088580;28;20165;-69
2021/12/13 12:20:10;;;;;;;4.60;3.30;;;9.70;99.90;;;;;;5088728;28;20184;-70
2021/12/13 12:22:55;;;;;;;5.75;4.15;;;9.70;99.90;;;;;;5088946;28;20485;-70
2021/12/13 12:25:25;;;;;;;3.42;3.17;;;9.80;99.90;;;;;;5088759;28;20198;-70
2021/12/13 12:27:56;;;;;;;4.75;3.08;;;9.80;99.90;;;;;;5088594;28;20173;-69
2021/12/13 12:30:26;;;;;;;3.17;2.85;;;9.80;99.90;;;;;;5088809;28;20230;-69
2021/12/13 12:32:59;;;;;;;3.40;3.05;;;9.70;99.90;;;;;;5087905;28;20272;-70
2021/12/13 12:35:31;;;;;;;3.80;2.83;;;9.70;99.90;;;;;;5088689;28;20421;-69
2021/12/13 12:37:57;;;;;;;6.88;4.00;;;9.70;99.90;;;;;;5088290;28;20322;-70
2021/12/13 12:40:35;;;;;;;3.85;3.10;;;9.60;99.90;;;;;;5088504;28;20266;-68
2021/12/13 12:43:07;;;;;;;3.83;3.50;;;9.60;99.90;;;;;;5070726;28;20404;-69
2021/12/13 12:45:41;;;;;;;4.55;2.95;;;9.70;99.90;;;;;;5088456;28;20172;-70
2021/12/13 12:48:19;;;;;;;3.63;3.30;;;9.80;99.90;;;;;;5088132;28;20164;-70
2021/12/13 12:50:54;;;;;;;2.78;2.58;;;9.80;99.90;;;;;;5088393;28;20168;-70
2021/12/13 12:53:34;;;;;;;3.88;3.17;;;9.90;99.90;;;;;;5088338;28;20273;-69
2021/12/13 12:56:31;;;;;;;3.38;2.80;;;10.00;99.90;;;;;;5088262;28;20396;-69
2021/12/13 12:59:13;;;;;;;3.22;2.58;;;10.00;99.90;;;;;;5088071;28;20160;-69
2021/12/13 13:01:59;;;;;;;4.20;2.78;;;10.00;99.90;;;;;;5070487;28;20168;-69
2021/12/13 13:04:39;;;;;;;2.75;2.55;;;9.90;99.90;;;;;;5087950;28;20200;-70
2021/12/13 13:07:12;;;;;;;3.40;2.80;;;10.00;99.90;;;;;;5087679;28;20179;-69
2021/12/13 13:09:43;;;;;;;2.88;2.67;;;10.00;99.90;;;;;;5071494;28;20314;-69
2021/12/13 13:12:22;;;;;;;4.38;2.55;;;10.10;99.90;;;;;;5067732;28;20199;-70
2021/12/13 13:14:56;;;;;;;2.88;2.13;;;10.10;99.90;;;;;;5067631;28;20204;-68
2021/12/13 13:17:25;;;;;;;2.60;1.90;;;10.20;99.90;;;;;;5049853;28;20165;-70
2021/12/13 13:19:57;;;;;;;2.38;2.17;;;10.20;99.90;;;;;;5067356;28;20346;-70
2021/12/13 13:22:44;;;;;;;2.13;1.90;;;10.30;99.90;;;;;;5067231;28;20204;-69
2021/12/13 13:25:19;;;;;;;4.25;2.80;;;10.30;99.90;;;;;;5067445;28;20184;-69
2021/12/13 13:27:46;;;;;;;3.70;2.55;;;10.30;99.90;;;;;;5067240;28;20168;-69
2021/12/13 13:30:32;;;;;;;4.65;2.67;;;10.30;99.90;;;;;;5067229;28;20169;-70
2021/12/13 13:32:58;;;;;;;3.75;2.58;;;10.20;99.90;;;;;;5049932;28;20209;-70
2021/12/13 13:35:24;;;;;;;3.93;2.73;;;10.10;99.90;;;;;;5067374;28;20400;-68
2021/12/13 13:37:50;;;;;;;3.10;2.60;;;10.00;99.90;;;;;;5067011;28;20415;-68
2021/12/13 13:40:24;;;;;;;2.73;2.53;;;10.00;99.90;;;;;;5067179;28;20229;-67
2021/12/13 13:42:52;;;;;;;2.20;2.00;;;10.00;99.90;;;;;;5050054;28;20400;-69
2021/12/13 13:45:29;;;;;;;3.10;2.80;;;9.90;99.90;;;;;;5065635;28;20185;-69
2021/12/13 13:48:06;;;;;;;1.60;1.50;;;9.90;99.90;;;;;;5066225;28;20245;-69